Time;durP1;ratioP1;P1;durP2;ratioP2;P2;SDS_P1;SDS_P2;PMS_P1;PMS_P2;Temp;Humidity;BMP_temperature;BMP_pressure;BME280_temperature;BME280_humidity;BME280_pressure;Samples;Min_cycle;Max_cycle;Signal;HPM_P1;HPM_P2
2022/01/25 00:16:03;;;;;;;65.30;58.53;;;;;;;-2.26;100.00;103432.16;5221628;28;20064;-84
2022/01/25 00:26:46;;;;;;;63.70;56.63;;;;;;;-2.45;100.00;103400.03;5218492;28;20248;-85
2022/01/25 00:29:29;;;;;;;73.63;66.22;;;;;;;-2.61;100.00;103375.63;5196384;28;20037;-84
2022/01/25 00:31:59;;;;;;;68.70;61.42;;;;;;;-1.82;100.00;103458.13;5196704;28;20049;-84
2022/01/25 00:34:29;;;;;;;71.43;63.78;;;;;;;-2.56;100.00;103321.41;5213819;28;20153;-85
2022/01/25 00:37:00;;;;;;;70.45;62.95;;;;;;;-2.21;100.00;103368.31;5196252;28;20036;-85
2022/01/25 00:39:30;;;;;;;77.47;67.80;;;;;;;-2.10;100.00;103376.34;5202684;28;20017;-85
2022/01/25 00:42:01;;;;;;;74.85;66.78;;;;;;;-1.74;100.00;103425.78;5219151;28;20033;-84
2022/01/25 00:44:36;;;;;;;68.18;60.95;;;;;;;-1.67;100.00;103437.59;5219083;28;20017;-85
2022/01/25 00:47:07;;;;;;;75.32;65.13;;;;;;;-1.45;100.00;103450.97;5215172;28;20026;-85
2022/01/25 00:49:40;;;;;;;71.90;64.45;;;;;;;-1.50;100.00;103436.38;5195967;28;20036;-85
2022/01/25 00:55:14;;;;;;;69.65;62.22;;;;;;;-1.19;100.00;103464.94;5179746;28;20030;-85
2022/01/25 00:57:44;;;;;;;78.25;65.78;;;;;;;-1.37;100.00;103435.31;5213554;28;20037;-85
2022/01/25 01:00:15;;;;;;;74.57;66.53;;;;;;;-1.27;100.00;103446.09;5213539;28;20029;-85
2022/01/25 01:02:45;;;;;;;67.70;60.58;;;;;;;-1.14;100.00;103440.69;5196054;28;20025;-85
2022/01/25 01:05:16;;;;;;;76.57;65.47;;;;;;;-1.17;100.00;103433.84;5212960;28;20452;-84
2022/01/25 01:07:47;;;;;;;70.40;62.42;;;;;;;-1.15;100.00;103439.00;5214106;28;20173;-84
2022/01/25 01:10:21;;;;;;;72.07;64.28;;;;;;;-1.28;100.00;103427.66;5196152;28;20022;-84
2022/01/25 01:15:40;;;;;;;66.45;59.83;;;;;;;-1.58;100.00;103346.84;5213966;28;20068;-83
2022/01/25 01:29:47;;;;;;;67.35;60.10;;;;;;;-0.81;100.00;103422.22;5213889;28;20044;-83
2022/01/25 01:49:15;;;;;;;59.85;53.97;;;;;;;-1.18;100.00;103457.81;5213835;28;20068;-83
2022/01/25 01:51:25;;;;;;;60.25;54.13;;;;;;;-1.11;100.00;103465.16;5192181;28;20488;-83
2022/01/25 01:54:00;;;;;;;60.75;54.38;;;;;;;-1.11;100.00;103464.31;5195208;28;20115;-83
2022/01/25 01:56:31;;;;;;;67.93;61.58;;;;;;;-1.05;100.00;103471.81;5195440;28;20021;-83
2022/01/25 01:59:06;;;;;;;66.55;58.63;;;;;;;-1.04;100.00;103469.06;5195468;28;20032;-83
2022/01/25 02:01:39;;;;;;;64.18;57.83;;;;;;;-1.05;100.00;103458.56;5195699;28;20048;-83
2022/01/25 02:04:11;;;;;;;61.17;55.10;;;;;;;-1.15;100.00;103453.09;5213115;28;20021;-82
2022/01/25 02:06:42;;;;;;;64.03;57.95;;;;;;;-1.58;100.00;103383.94;5212900;28;20103;-83
2022/01/25 02:09:13;;;;;;;62.97;56.85;;;;;;;-1.22;100.00;103440.44;5216383;28;20038;-84
2022/01/25 02:11:44;;;;;;;66.70;58.88;;;;;;;-1.28;100.00;103403.78;5216467;28;20025;-83
2022/01/25 02:14:16;;;;;;;61.60;55.20;;;;;;;-1.62;100.00;103333.94;5216455;28;20024;-83
2022/01/25 02:22:29;;;;;;;66.53;58.10;;;;;;;-1.27;100.00;103366.56;5216429;28;20487;-83
2022/01/25 02:25:00;;;;;;;61.92;55.95;;;;;;;-0.91;100.00;103413.28;5216126;28;20063;-84
2022/01/25 02:27:30;;;;;;;66.90;59.92;;;;;;;-0.78;100.00;103440.53;5216187;28;20029;-83
2022/01/25 02:30:01;;;;;;;63.25;56.92;;;;;;;-0.47;100.00;103470.84;5198309;28;20106;-84
2022/01/25 02:32:31;;;;;;;67.60;60.42;;;;;;;-0.42;100.00;103457.22;5216672;28;20435;-84
2022/01/25 02:35:02;;;;;;;63.85;57.00;;;;;;;-0.50;100.00;103456.97;5198574;28;20026;-83
2022/01/25 02:37:33;;;;;;;66.20;59.58;;;;;;;-0.28;100.00;103469.41;5216248;28;20021;-82
2022/01/25 02:40:06;;;;;;;62.60;56.30;;;;;;;-0.37;100.00;103441.78;5216345;28;20017;-83
2022/01/25 02:42:36;;;;;;;70.03;62.30;;;;;;;-0.21;100.00;103447.56;5216130;28;20033;-83
2022/01/25 02:45:11;;;;;;;66.60;59.58;;;;;;;-0.37;100.00;103420.53;5215648;28;20036;-83
2022/01/25 02:50:31;;;;;;;65.22;58.33;;;;;;;-0.23;100.00;103433.56;5216683;28;20038;-83
2022/01/25 02:53:02;;;;;;;66.85;60.63;;;;;;;-0.23;100.00;103427.41;5199811;28;20021;-83
2022/01/25 02:55:32;;;;;;;72.03;61.45;;;;;;;-0.13;100.00;103439.84;5226297;28;20021;-83
2022/01/25 02:58:05;;;;;;;66.03;59.25;;;;;;;-0.37;100.00;103392.19;5226826;28;20053;-84
2022/01/25 03:00:36;;;;;;;64.80;58.53;;;;;;;-0.05;100.00;103444.53;5208113;28;20522;-84
2022/01/25 03:03:06;;;;;;;70.60;63.33;;;;;;;-0.20;100.00;103414.72;5225273;28;20021;-83
2022/01/25 03:05:37;;;;;;;65.10;58.30;;;;;;;0.06;100.00;103441.84;5225769;28;20032;-83
2022/01/25 03:08:11;;;;;;;65.40;58.35;;;;;;;-0.06;100.00;103417.13;5225703;28;20021;-85
2022/01/25 03:10:45;;;;;;;66.40;59.92;;;;;;;0.04;100.00;103427.00;5223570;28;20052;-84
2022/01/25 03:13:21;;;;;;;68.05;60.25;;;;;;;-0.05;100.00;103416.16;5218498;28;20080;-84
2022/01/25 03:21:18;;;;;;;74.07;66.45;;;;;;;0.14;100.00;103420.81;5218436;28;20085;-85
2022/01/25 03:23:50;;;;;;;72.95;61.20;;;;;;;0.32;100.00;103429.09;5217719;28;20033;-85
2022/01/25 03:26:22;;;;;;;73.53;65.88;;;;;;;0.36;100.00;103429.69;5201326;28;20025;-84
2022/01/25 03:28:53;;;;;;;67.35;60.30;;;;;;;0.26;100.00;103409.22;5220697;28;20407;-84
2022/01/25 03:31:24;;;;;;;69.88;61.58;;;;;;;0.14;100.00;103380.13;5204700;28;20030;-84
2022/01/25 03:33:55;;;;;;;66.47;59.65;;;;;;;0.35;100.00;103415.56;5219323;28;20087;-85
2022/01/25 03:36:26;;;;;;;67.07;60.65;;;;;;;-0.57;100.00;103267.34;5216667;28;20029;-84
2022/01/25 03:38:56;;;;;;;66.80;59.80;;;;;;;-0.03;100.00;103358.47;5218933;28;20367;-84
2022/01/25 03:41:27;;;;;;;69.82;58.22;;;;;;;0.53;100.00;103426.50;5218507;28;20056;-84
2022/01/25 03:43:57;;;;;;;74.55;63.03;;;;;;;-0.47;100.00;103255.84;5215626;28;20056;-85
2022/01/25 03:51:49;;;;;;;66.03;58.77;;;;;;;0.64;100.00;103431.75;5217416;28;20032;-84
2022/01/25 03:54:20;;;;;;;70.35;61.97;;;;;;;0.44;100.00;103390.88;5200378;28;20093;-84
2022/01/25 03:56:50;;;;;;;68.25;60.95;;;;;;;0.53;100.00;103406.09;5218001;28;20036;-85
2022/01/25 03:59:21;;;;;;;71.82;64.07;;;;;;;0.18;100.00;103345.22;5219722;28;20308;-84
2022/01/25 04:01:51;;;;;;;71.30;63.53;;;;;;;0.43;100.00;103380.38;5199387;28;20040;-84
2022/01/25 04:04:24;;;;;;;65.45;57.60;;;;;;;0.57;100.00;103418.16;5198413;28;20022;-85
2022/01/25 04:06:55;;;;;;;73.13;65.72;;;;;;;0.73;100.00;103432.81;5198800;28;20029;-85
2022/01/25 04:09:28;;;;;;;69.68;61.83;;;;;;;0.53;100.00;103399.91;5201220;28;20052;-84
2022/01/25 04:11:58;;;;;;;66.80;59.47;;;;;;;0.16;100.00;103335.69;5202065;28;20032;-84
2022/01/25 04:14:29;;;;;;;77.43;60.38;;;;;;;0.32;100.00;103370.63;5197978;28;20052;-84
2022/01/25 04:17:09;;;;;;;64.90;57.88;;;;;;;0.67;100.00;103419.06;5199186;28;20044;-83
2022/01/25 04:19:44;;;;;;;79.75;60.35;;;;;;;0.38;100.00;103364.81;5198686;28;20129;-83
2022/01/25 04:27:37;;;;;;;64.03;57.30;;;;;;;0.65;100.00;103399.72;5212747;28;20049;-83
2022/01/25 04:30:08;;;;;;;65.20;56.42;;;;;;;0.63;100.00;103396.34;5212278;28;20021;-83
2022/01/25 04:32:46;;;;;;;67.82;60.78;;;;;;;0.77;100.00;103429.78;5213008;28;20438;-82
2022/01/25 04:49:26;;;;;;;68.80;61.72;;;;;;;0.67;100.00;103391.63;5212836;28;20045;-83
2022/01/25 05:00:03;;;;;;;78.32;66.20;;;;;;;0.85;100.00;103410.53;5212747;28;20051;-82
2022/01/25 05:03:24;;;;;;;73.20;64.85;;;;;;;0.94;100.00;103413.22;5195072;28;20026;-83
2022/01/25 05:08:14;;;;;;;73.53;65.65;;;;;;;0.80;100.00;103375.47;5212277;28;20377;-83
2022/01/25 05:10:58;;;;;;;84.10;67.65;;;;;;;0.89;100.00;103374.69;5194238;28;20384;-82
2022/01/25 05:13:51;;;;;;;76.53;67.63;;;;;;;0.83;100.00;103364.59;5194433;28;20073;-82
2022/01/25 05:16:31;;;;;;;70.28;60.42;;;;;;;1.00;100.00;103386.09;5212790;28;20029;-82
2022/01/25 05:24:57;;;;;;;76.20;66.32;;;;;;;0.81;100.00;103354.06;5147746;28;20050;-82
2022/01/25 05:27:30;;;;;;;78.13;70.43;;;;;;;1.09;100.00;103397.78;5187309;28;20040;-81
2022/01/25 05:30:00;;;;;;;76.43;65.63;;;;;;;1.00;100.00;103382.59;5194141;28;20025;-81
2022/01/25 05:32:32;;;;;;;74.18;65.68;;;;;;;1.01;100.00;103378.97;5194685;28;20032;-82
2022/01/25 05:35:03;;;;;;;73.95;65.80;;;;;;;0.97;100.00;103381.03;5192431;28;20018;-84
2022/01/25 05:37:39;;;;;;;74.72;62.90;;;;;;;0.97;100.00;103373.06;5194367;28;20087;-82
2022/01/25 05:40:15;;;;;;;76.28;67.65;;;;;;;1.20;100.00;103395.03;5194654;28;20079;-83
2022/01/25 05:43:58;;;;;;;74.25;66.15;;;;;;;1.10;100.00;103367.53;5196988;28;20364;-83
2022/01/25 05:48:27;;;;;;;77.80;67.45;;;;;;;1.10;100.00;103354.22;5216474;28;20075;-83
2022/01/25 05:50:58;;;;;;;72.20;64.45;;;;;;;1.31;100.00;103381.63;5216433;28;20459;-84
2022/01/25 05:53:29;;;;;;;74.25;62.63;;;;;;;1.26;100.00;103377.69;5197495;28;20028;-84
2022/01/25 05:55:59;;;;;;;75.22;67.53;;;;;;;1.13;100.00;103355.78;5191194;28;20021;-84
2022/01/25 05:58:29;;;;;;;71.15;63.35;;;;;;;1.33;100.00;103385.00;5209816;28;20096;-84
2022/01/25 06:01:00;;;;;;;70.75;63.08;;;;;;;1.24;100.00;103372.50;5208553;28;20033;-84
2022/01/25 06:03:30;;;;;;;70.38;62.47;;;;;;;1.03;100.00;103331.78;5190459;28;20049;-85
2022/01/25 06:06:00;;;;;;;71.72;63.13;;;;;;;1.23;100.00;103362.81;5208999;28;20029;-85
2022/01/25 06:08:31;;;;;;;70.95;63.63;;;;;;;1.22;100.00;103366.47;5191283;28;20114;-84
2022/01/25 06:11:01;;;;;;;67.32;60.10;;;;;;;1.14;100.00;103346.84;5190493;28;20033;-83
2022/01/25 06:13:32;;;;;;;70.57;59.92;;;;;;;1.28;100.00;103362.44;5208018;28;20025;-84
2022/01/25 06:16:03;;;;;;;71.35;64.05;;;;;;;1.25;100.00;103352.03;5208984;28;20110;-84
2022/01/25 06:18:33;;;;;;;74.57;65.57;;;;;;;1.36;100.00;103378.59;5191350;28;20111;-85
2022/01/25 06:21:04;;;;;;;71.20;62.15;;;;;;;1.38;100.00;103373.97;5209287;28;20021;-84
2022/01/25 06:23:34;;;;;;;73.38;65.38;;;;;;;1.24;100.00;103356.53;5190484;28;20083;-84
2022/01/25 06:26:04;;;;;;;74.55;66.88;;;;;;;1.32;100.00;103366.50;5189943;28;20235;-85
2022/01/25 06:28:35;;;;;;;74.82;64.35;;;;;;;1.26;100.00;103356.38;5206000;28;20040;-83
2022/01/25 06:31:07;;;;;;;70.95;63.45;;;;;;;1.28;100.00;103359.75;5189449;28;20479;-85
2022/01/25 06:33:42;;;;;;;70.45;62.92;;;;;;;1.36;100.00;103386.56;5190568;28;20021;-85
2022/01/25 06:36:13;;;;;;;77.13;68.80;;;;;;;1.33;100.00;103382.34;5208659;28;20430;-83
2022/01/25 06:38:43;;;;;;;77.38;69.35;;;;;;;1.23;100.00;103378.78;5207651;28;20022;-85
2022/01/25 06:41:17;;;;;;;72.28;64.63;;;;;;;1.30;100.00;103382.63;5207589;28;20021;-84
2022/01/25 06:43:47;;;;;;;68.95;61.80;;;;;;;1.35;100.00;103390.22;5208816;28;20017;-84
2022/01/25 06:46:17;;;;;;;73.97;66.43;;;;;;;1.11;100.00;103358.59;5209181;28;20048;-85
2022/01/25 06:48:48;;;;;;;69.78;62.33;;;;;;;1.25;100.00;103373.34;5193996;28;20048;-84
2022/01/25 06:51:18;;;;;;;69.70;62.72;;;;;;;1.20;100.00;103371.06;5193191;28;20025;-86
2022/01/25 06:53:48;;;;;;;72.63;63.42;;;;;;;1.16;100.00;103368.81;5210505;28;20511;-85
2022/01/25 06:56:19;;;;;;;69.00;61.83;;;;;;;0.98;100.00;103344.63;5211205;28;20112;-86
2022/01/25 06:58:49;;;;;;;76.50;65.38;;;;;;;0.98;100.00;103340.16;5211657;28;20021;-85
2022/01/25 07:01:20;;;;;;;69.13;61.53;;;;;;;1.09;100.00;103360.53;5193760;28;20083;-86
2022/01/25 07:03:50;;;;;;;72.70;62.30;;;;;;;1.33;100.00;103408.13;5194178;28;20017;-84
2022/01/25 07:06:21;;;;;;;72.78;64.38;;;;;;;1.32;100.00;103409.09;5211927;28;20089;-86
2022/01/25 07:08:51;;;;;;;67.40;60.05;;;;;;;1.33;100.00;103402.81;5193649;28;20480;-84
2022/01/25 07:11:22;;;;;;;70.88;63.38;;;;;;;1.25;100.00;103403.47;5193920;28;20404;-86
2022/01/25 07:13:52;;;;;;;69.63;62.17;;;;;;;1.33;100.00;103414.28;5211561;28;20029;-85
2022/01/25 07:16:24;;;;;;;71.13;63.58;;;;;;;1.23;100.00;103394.75;5195436;28;20030;-85
2022/01/25 07:18:55;;;;;;;69.30;61.88;;;;;;;1.16;100.00;103379.44;5197433;28;20025;-84
2022/01/25 07:21:26;;;;;;;73.80;65.97;;;;;;;1.37;100.00;103416.69;5195714;28;20028;-85
2022/01/25 07:23:56;;;;;;;61.60;55.13;;;;;;;1.36;100.00;103421.19;5213059;28;20033;-85
2022/01/25 07:26:26;;;;;;;79.10;62.85;;;;;;;1.22;100.00;103390.41;5212806;28;20037;-84
2022/01/25 07:28:57;;;;;;;69.97;62.55;;;;;;;1.38;100.00;103413.06;5195064;28;20021;-83
2022/01/25 07:31:27;;;;;;;72.93;64.15;;;;;;;1.08;100.00;103361.50;5211841;28;20076;-83
2022/01/25 07:33:58;;;;;;;71.10;63.40;;;;;;;1.20;100.00;103367.56;5211486;28;20032;-84
2022/01/25 07:36:28;;;;;;;71.03;63.05;;;;;;;1.33;100.00;103379.69;5222622;28;20022;-84
2022/01/25 07:38:58;;;;;;;76.72;63.20;;;;;;;1.30;100.00;103385.28;5206988;28;20109;-81
2022/01/25 07:41:29;;;;;;;71.07;63.38;;;;;;;1.42;100.00;103398.50;5222500;28;20101;-82
2022/01/25 07:43:59;;;;;;;71.68;63.33;;;;;;;1.43;100.00;103400.19;5222813;28;20021;-83
2022/01/25 07:46:31;;;;;;;78.70;68.65;;;;;;;1.26;100.00;103367.03;5222052;28;20022;-81
2022/01/25 07:49:03;;;;;;;64.38;57.70;;;;;;;1.52;100.00;103402.03;5224158;28;20021;-82
2022/01/25 07:51:35;;;;;;;70.78;62.97;;;;;;;1.35;100.00;103380.41;5223422;28;20052;-84
2022/01/25 07:54:05;;;;;;;72.65;64.45;;;;;;;1.50;100.00;103396.84;5205630;28;20029;-83
2022/01/25 07:56:36;;;;;;;71.68;64.03;;;;;;;1.56;100.00;103400.78;5223810;28;20025;-82
2022/01/25 07:59:07;;;;;;;65.90;57.67;;;;;;;1.57;100.00;103397.16;5206866;28;20021;-84
2022/01/25 08:01:37;;;;;;;69.88;58.40;;;;;;;1.40;100.00;103368.50;5225404;28;20022;-84
2022/01/25 08:04:09;;;;;;;65.65;58.13;;;;;;;1.51;100.00;103395.03;5205033;28;20168;-84
2022/01/25 08:06:40;;;;;;;63.40;56.55;;;;;;;1.59;100.00;103406.69;5222831;28;20029;-84
2022/01/25 08:09:11;;;;;;;63.03;56.10;;;;;;;1.69;100.00;103407.59;5223659;28;20026;-83
2022/01/25 08:11:43;;;;;;;68.57;59.88;;;;;;;1.57;100.00;103389.16;5222373;28;20464;-82
2022/01/25 08:14:16;;;;;;;65.30;56.78;;;;;;;1.72;100.00;103410.97;5210671;28;20014;-84
2022/01/25 08:16:48;;;;;;;60.92;54.40;;;;;;;1.75;100.00;103416.84;5210216;28;20105;-82
2022/01/25 08:19:20;;;;;;;63.40;56.90;;;;;;;1.75;100.00;103421.31;5210027;28;20021;-81
2022/01/25 08:21:50;;;;;;;61.53;54.03;;;;;;;1.69;100.00;103422.72;5210485;28;20041;-85
2022/01/25 08:24:20;;;;;;;64.55;57.92;;;;;;;1.70;100.00;103416.41;5192795;28;20101;-86
2022/01/25 08:26:51;;;;;;;60.38;53.83;;;;;;;1.78;100.00;103421.88;5209771;28;20029;-84
2022/01/25 08:29:21;;;;;;;63.83;57.10;;;;;;;1.51;100.00;103376.38;5210189;28;20025;-83
2022/01/25 08:31:52;;;;;;;66.55;54.50;;;;;;;1.83;100.00;103424.16;5209834;28;20029;-82
2022/01/25 08:34:22;;;;;;;65.50;58.63;;;;;;;1.73;100.00;103408.16;5191628;28;20083;-83
2022/01/25 08:36:52;;;;;;;63.53;54.55;;;;;;;1.71;100.00;103404.78;5191481;28;20067;-82
2022/01/25 08:39:26;;;;;;;66.50;55.95;;;;;;;1.69;100.00;103394.28;5209281;28;20024;-82
2022/01/25 08:41:56;;;;;;;61.08;54.60;;;;;;;1.90;100.00;103426.16;5209152;28;20029;-82
2022/01/25 08:44:27;;;;;;;65.63;56.00;;;;;;;1.78;100.00;103400.59;5190231;28;20025;-82
2022/01/25 08:46:57;;;;;;;68.22;59.47;;;;;;;1.89;100.00;103412.97;5207889;28;20104;-82
2022/01/25 08:49:30;;;;;;;68.40;59.92;;;;;;;2.05;100.00;103429.25;5207256;28;20390;-82
2022/01/25 08:52:01;;;;;;;68.20;58.58;;;;;;;1.97;100.00;103413.97;5189714;28;20021;-82
2022/01/25 08:54:32;;;;;;;62.53;55.65;;;;;;;1.95;100.00;103401.75;5207568;28;20104;-81
2022/01/25 08:57:04;;;;;;;60.33;54.45;;;;;;;2.05;100.00;103413.25;5206028;28;20028;-80
2022/01/25 08:59:34;;;;;;;64.55;57.65;;;;;;;1.96;100.00;103393.63;5188259;28;20167;-79
2022/01/25 09:02:05;;;;;;;73.65;58.67;;;;;;;1.99;100.00;103408.50;5205898;28;20108;-83
2022/01/25 09:04:35;;;;;;;64.80;56.03;;;;;;;2.02;100.00;103409.03;5188026;28;20132;-80
2022/01/25 09:07:05;;;;;;;60.80;54.15;;;;;;;2.03;100.00;103394.75;5205579;28;20025;-80
2022/01/25 09:09:36;;;;;;;62.42;55.72;;;;;;;2.18;100.00;103421.00;5187688;28;20533;-80
2022/01/25 09:12:07;;;;;;;65.22;58.28;;;;;;;2.11;100.00;103410.06;5187898;28;20076;-79
2022/01/25 09:14:37;;;;;;;60.08;53.70;;;;;;;2.21;100.00;103418.06;5187428;28;20448;-80
2022/01/25 09:17:09;;;;;;;65.10;58.55;;;;;;;2.31;100.00;103433.09;5205002;28;20052;-80
2022/01/25 09:19:41;;;;;;;64.63;57.88;;;;;;;2.32;100.00;103424.09;5187535;28;20028;-79
2022/01/25 09:22:11;;;;;;;60.42;54.47;;;;;;;2.22;100.00;103401.09;5187666;28;20458;-79
2022/01/25 09:24:41;;;;;;;64.65;56.55;;;;;;;2.19;100.00;103406.72;5187600;28;20032;-80
2022/01/25 09:27:12;;;;;;;60.47;54.20;;;;;;;2.20;100.00;103414.56;5205176;28;20040;-82
2022/01/25 09:29:42;;;;;;;58.38;52.53;;;;;;;2.20;100.00;103417.22;5205145;28;20029;-83
2022/01/25 09:32:13;;;;;;;62.47;55.63;;;;;;;2.24;100.00;103415.97;5205400;28;20025;-82
2022/01/25 09:34:43;;;;;;;60.47;54.20;;;;;;;2.34;100.00;103422.16;5205062;28;20076;-82
2022/01/25 09:37:13;;;;;;;67.60;59.55;;;;;;;2.48;100.00;103436.06;5187564;28;20033;-79
2022/01/25 09:39:44;;;;;;;73.32;56.40;;;;;;;2.52;100.00;103434.81;5187138;28;20017;-79
2022/01/25 09:42:15;;;;;;;60.08;54.03;;;;;;;2.51;100.00;103441.13;5205694;28;20029;-83
2022/01/25 09:44:46;;;;;;;58.17;52.10;;;;;;;2.51;100.00;103433.97;5187508;28;20163;-83
2022/01/25 09:47:16;;;;;;;60.88;54.20;;;;;;;2.43;100.00;103420.47;5187808;28;20021;-83
2022/01/25 09:49:47;;;;;;;61.65;55.33;;;;;;;2.53;100.00;103429.34;5191801;28;20159;-82
2022/01/25 09:52:18;;;;;;;63.40;56.90;;;;;;;2.60;100.00;103441.09;5210480;28;20392;-83
2022/01/25 09:54:54;;;;;;;66.65;59.53;;;;;;;2.47;100.00;103416.56;5210228;28;20025;-83
2022/01/25 09:57:25;;;;;;;59.17;52.72;;;;;;;2.62;100.00;103446.31;5210551;28;20030;-85
2022/01/25 09:59:56;;;;;;;59.95;53.63;;;;;;;2.70;100.00;103455.31;5192533;28;20017;-85
2022/01/25 10:02:36;;;;;;;59.60;52.90;;;;;;;2.76;100.00;103455.72;5210850;28;20031;-85
2022/01/25 10:05:31;;;;;;;60.88;52.72;;;;;;;2.81;100.00;103448.16;5193913;28;20033;-85
2022/01/25 10:08:25;;;;;;;56.42;50.40;;;;;;;2.80;100.00;103446.47;5222357;28;20021;-86
2022/01/25 10:11:05;;;;;;;57.63;51.67;;;;;;;2.55;100.00;103415.84;5214367;28;20041;-85
2022/01/25 10:13:36;;;;;;;62.70;52.40;;;;;;;2.89;100.00;103456.25;5209807;28;20025;-86
2022/01/25 10:16:17;;;;;;;65.95;56.38;;;;;;;2.92;100.00;103459.50;5192059;28;20083;-86
2022/01/25 10:18:53;;;;;;;65.15;57.95;;;;;;;2.97;100.00;103464.41;5192141;28;20041;-85
2022/01/25 10:21:30;;;;;;;65.97;52.63;;;;;;;2.97;100.00;103456.41;5213179;28;20029;-86
2022/01/25 10:24:37;;;;;;;65.88;54.92;;;;;;;3.00;100.00;103459.63;5213004;28;20068;-87
2022/01/25 10:27:09;;;;;;;60.22;53.63;;;;;;;2.84;100.00;103430.03;5129203;29;20043;-84
2022/01/25 10:29:41;;;;;;;58.33;50.90;;;;;;;2.78;100.00;103427.91;5201829;28;20045;-86
2022/01/25 10:32:16;;;;;;;63.33;54.25;;;;;;;3.04;100.00;103457.53;5199484;28;20049;-86
2022/01/25 10:34:49;;;;;;;55.95;48.63;;;;;;;2.82;100.00;103436.50;5217492;28;20022;-86
2022/01/25 10:37:25;;;;;;;59.60;53.50;;;;;;;2.96;100.00;103460.91;5199251;28;20037;-86
2022/01/25 10:39:56;;;;;;;54.38;49.10;;;;;;;2.82;100.00;103429.31;5198670;28;20052;-86
2022/01/25 10:42:29;;;;;;;59.08;52.58;;;;;;;2.87;100.00;103442.25;5198893;28;20025;-86
2022/01/25 10:45:03;;;;;;;57.88;50.00;;;;;;;2.91;100.00;103448.97;5198848;28;20052;-87
2022/01/25 10:47:50;;;;;;;60.28;52.22;;;;;;;3.01;100.00;103458.66;5216638;28;20017;-87
2022/01/25 10:50:34;;;;;;;55.33;49.40;;;;;;;3.06;100.00;103458.22;5216008;28;20026;-86
2022/01/25 10:53:16;;;;;;;57.92;51.70;;;;;;;3.09;100.00;103451.75;5216313;28;20369;-83
2022/01/25 10:55:51;;;;;;;54.53;48.67;;;;;;;3.13;100.00;103453.16;5198158;28;20045;-84
2022/01/25 10:58:24;;;;;;;50.50;45.50;;;;;;;3.13;100.00;103462.00;5216457;28;20048;-83
2022/01/25 11:00:55;;;;;;;53.42;44.67;;;;;;;3.02;100.00;103427.47;5217262;28;20029;-84
2022/01/25 11:03:32;;;;;;;53.78;48.22;;;;;;;2.83;100.00;103382.13;5217517;28;20106;-84
2022/01/25 11:06:17;;;;;;;55.67;49.90;;;;;;;3.12;100.00;103425.63;5217347;28;20029;-84
2022/01/25 11:08:50;;;;;;;55.28;47.63;;;;;;;3.23;100.00;103433.44;5199891;28;20017;-84
2022/01/25 11:11:27;;;;;;;55.17;49.40;;;;;;;3.18;100.00;103430.34;5198880;28;20025;-83
2022/01/25 11:14:49;;;;;;;53.22;47.45;;;;;;;3.17;100.00;103418.03;5216891;28;20018;-83
2022/01/25 11:16:49;;;;;;;53.35;47.85;;;;;;;3.22;100.00;103413.06;5217491;28;20036;-84
2022/01/25 11:19:22;;;;;;;57.15;48.65;;;;;;;3.05;100.00;103387.97;5199534;28;20484;-83
2022/01/25 11:21:54;;;;;;;53.78;45.70;;;;;;;3.31;100.00;103436.25;5199638;28;20026;-84
2022/01/25 11:24:29;;;;;;;52.25;46.95;;;;;;;3.28;100.00;103425.84;5199386;28;20142;-84
2022/01/25 11:27:04;;;;;;;57.17;47.92;;;;;;;3.36;100.00;103433.16;5216513;28;20030;-83
2022/01/25 11:29:37;;;;;;;53.80;47.47;;;;;;;3.03;100.00;103386.44;5217138;28;20037;-83
2022/01/25 11:32:13;;;;;;;59.35;52.92;;;;;;;3.46;100.00;103438.47;5217358;28;20021;-83
2022/01/25 11:34:45;;;;;;;56.10;49.10;;;;;;;3.43;100.00;103439.59;5217461;28;20025;-83
2022/01/25 11:37:16;;;;;;;59.65;53.25;;;;;;;3.24;100.00;103421.78;5217579;28;20029;-83
2022/01/25 11:39:49;;;;;;;58.47;51.83;;;;;;;3.08;100.00;103392.19;5216451;28;20065;-83
2022/01/25 11:42:26;;;;;;;55.60;49.35;;;;;;;3.38;100.00;103439.19;5216959;28;20021;-84
2022/01/25 11:44:58;;;;;;;59.42;53.28;;;;;;;3.35;100.00;103447.47;5216342;28;20022;-83
2022/01/25 11:47:34;;;;;;;58.80;52.53;;;;;;;3.33;100.00;103439.63;5216367;28;20052;-84
2022/01/25 11:50:09;;;;;;;56.95;50.90;;;;;;;3.15;100.00;103398.63;5198003;28;20021;-83
2022/01/25 11:52:52;;;;;;;64.20;52.75;;;;;;;3.40;100.00;103450.56;5216336;28;20025;-83
2022/01/25 11:55:30;;;;;;;58.05;51.80;;;;;;;3.22;100.00;103426.41;5215815;28;20025;-83
2022/01/25 11:58:07;;;;;;;65.70;47.33;;;;;;;3.24;100.00;103435.13;5213279;28;20437;-83
2022/01/25 12:00:50;;;;;;;67.07;54.65;;;;;;;3.08;100.00;103424.22;5213043;28;20021;-83
2022/01/25 12:03:31;;;;;;;59.20;52.63;;;;;;;3.27;100.00;103445.53;5213067;28;20063;-84
2022/01/25 12:06:09;;;;;;;61.70;54.65;;;;;;;3.24;100.00;103428.94;5196188;28;20031;-84
2022/01/25 12:11:49;;;;;;;58.42;50.35;;;;;;;3.13;100.00;103410.44;5213710;28;20029;-84
2022/01/25 12:14:42;;;;;;;51.65;46.08;;;;;;;3.12;100.00;103396.25;5215761;28;20049;-84
2022/01/25 12:17:17;;;;;;;57.55;50.85;;;;;;;3.42;100.00;103421.03;5216388;28;20021;-85
2022/01/25 12:19:50;;;;;;;55.05;49.45;;;;;;;3.62;100.00;103414.63;5197421;28;20033;-85
2022/01/25 12:22:30;;;;;;;55.72;48.40;;;;;;;3.70;100.00;103414.72;5198113;28;20510;-85
2022/01/25 12:25:28;;;;;;;49.58;44.40;;;;;;;3.30;100.00;103335.75;5197184;28;20080;-85
2022/01/25 12:28:07;;;;;;;51.95;46.65;;;;;;;3.45;100.00;103365.50;5197143;28;20031;-85
2022/01/25 12:30:42;;;;;;;53.00;47.63;;;;;;;3.67;100.00;103374.94;5214935;28;20097;-84
2022/01/25 12:33:40;;;;;;;58.17;48.78;;;;;;;3.86;100.00;103408.72;5214747;28;20037;-83
2022/01/25 12:36:11;;;;;;;56.80;50.63;;;;;;;3.65;100.00;103395.63;5194496;28;20036;-84
2022/01/25 12:38:47;;;;;;;58.72;52.20;;;;;;;3.76;100.00;103421.28;5196732;28;20088;-84
2022/01/25 12:41:27;;;;;;;70.63;53.20;;;;;;;3.65;100.00;103414.34;5213801;28;20025;-83
2022/01/25 12:43:59;;;;;;;55.65;49.05;;;;;;;3.52;100.00;103419.16;5213119;28;20025;-84
2022/01/25 12:46:34;;;;;;;63.20;56.55;;;;;;;3.43;100.00;103417.38;5198172;28;20025;-84
2022/01/25 12:49:13;;;;;;;59.45;49.50;;;;;;;3.39;100.00;103401.66;5199461;28;20037;-84
2022/01/25 12:51:46;;;;;;;61.88;54.00;;;;;;;3.21;100.00;103368.66;5198269;28;20116;-85
2022/01/25 12:54:17;;;;;;;65.55;55.10;;;;;;;3.49;100.00;103420.28;5198594;28;20411;-84
2022/01/25 12:56:49;;;;;;;64.15;57.97;;;;;;;3.43;100.00;103404.88;5197622;28;20025;-85
2022/01/25 12:59:23;;;;;;;59.05;52.92;;;;;;;3.26;100.00;103369.06;5197215;28;20107;-84
2022/01/25 13:01:55;;;;;;;55.67;50.05;;;;;;;3.13;100.00;103360.56;5197166;28;20104;-84
2022/01/25 13:04:29;;;;;;;60.15;53.63;;;;;;;3.38;100.00;103397.28;5197185;28;20033;-85
2022/01/25 13:07:00;;;;;;;55.00;49.30;;;;;;;3.35;100.00;103388.72;5214573;28;20036;-85
2022/01/25 13:09:39;;;;;;;60.08;53.75;;;;;;;3.06;100.00;103351.44;5196755;28;20117;-85
2022/01/25 13:12:13;;;;;;;59.63;52.63;;;;;;;3.28;100.00;103374.28;5197142;28;20053;-85
2022/01/25 13:17:20;;;;;;;65.05;58.30;;;;;;;3.44;100.00;103377.19;5214800;28;20067;-86
2022/01/25 13:20:02;;;;;;;61.22;54.40;;;;;;;3.49;100.00;103364.19;5214927;28;20013;-85
2022/01/25 13:22:39;;;;;;;59.58;53.20;;;;;;;3.54;100.00;103367.25;5215395;28;20151;-84
2022/01/25 13:25:24;;;;;;;59.15;53.08;;;;;;;3.48;100.00;103353.66;5196797;28;20022;-85
2022/01/25 13:27:59;;;;;;;57.67;50.92;;;;;;;3.50;100.00;103349.00;5197426;28;20036;-85
2022/01/25 13:30:41;;;;;;;54.72;48.97;;;;;;;3.60;100.00;103361.34;5215711;28;20097;-84
2022/01/25 13:33:17;;;;;;;59.42;53.20;;;;;;;3.61;100.00;103359.50;5197423;28;20017;-83
2022/01/25 13:35:55;;;;;;;56.38;50.03;;;;;;;3.55;100.00;103347.56;5196626;28;20025;-85